Asharoken, New York
Current Conditions -  °F | °C
As of 5:53 PM on Thursday 23 Oct 2014 (Local Time) from KFRG Reporting Station
Overcast Overcast  
Wind Chill: 12°   Ceiling: 2300
Heat Index: 12°   Visibility: 10mi
Dew Point:   Wind: 15mph
Humidity: 74%   Direction: 350°N
Pressure: 29.69"   Gusts: 23mph
Location:  40.9096°N, 73.3231°W
Report Text: KFRG 232153Z 35013G20KT 10SM OVC023 12/07 A2969 RMK AO2 SLP053 T01170072
Loading
Personal Weather Stations






























Interactive Weather Map
Tropical Storm Tracking
New forecast layout! Learn more

10-Day Weather Forecast

Advertisements
Track Severe Weather on mobile